»·PEaware :: N127CB KSAN-KLAS

N127CB :: KSAN-KLAS

FLIGHT INFORMATION

Flight Status: Arrived
Operator: Privately registered:
United States
More flights under this callsign
Pilot: Chris B. (15698)
Aircraft: Unknown
(HA4T)
More flights by this aircraft type
Origin: KSAN San Diego Intl-Lindbergh
United States
Destination: KLAS McCarran Intl
United States
More flights between these airports :: More routes between these airports
Route: CWARD1 LAX J9 MISEN KEPEC5
File this flight plan on PilotEdge
Remarks:
Altitude:
(Current/Filed)
41,000ft
Speed:
(Current/Filed)
475kts
Departed: 11-Oct-17 08:54 PM
Arrived: 11-Oct-17 09:57 PM
Distance/Time
Traveled:
226nm/1:03
Distance/Time
To Go:
Arrived

Flight Plot

Page will automatically refresh every two minutes.

Flight plan parsing failed; only flown route is shown


Map Options




Map Legend


Flown Route
Filed Route
Departure Airport
Arrival Airport
Navaid (VOR, NDB)
Fix

Horizontal Profiles

Position Reports

Time Latitude Longitude Heading Altitude Ground
Speed
11-Oct-17 20:45 32.731524 -117.190448 330 23ft 0kts
11-Oct-17 20:46 32.731524 -117.190448 330 23ft 0kts
11-Oct-17 20:47 32.731524 -117.190448 330 23ft 0kts
11-Oct-17 20:48 32.731524 -117.190448 330 23ft 0kts
11-Oct-17 20:49 32.731524 -117.190448 330 23ft 0kts
11-Oct-17 20:50 32.731525 -117.190448 330 23ft 0kts
11-Oct-17 20:51 32.731525 -117.190448 330 23ft 0kts
11-Oct-17 20:53 32.732636 -117.190189 88 23ft 16kts
11-Oct-17 20:54 32.729480 -117.176901 80 23ft 21kts
11-Oct-17 20:55 32.729550 -117.176646 68 23ft 0kts
11-Oct-17 20:56 32.729550 -117.176646 68 23ft 0kts
11-Oct-17 20:57 32.729550 -117.176646 68 23ft 0kts
11-Oct-17 20:58 32.729550 -117.176646 68 23ft 0kts
11-Oct-17 20:59 32.731762 -117.182477 287 60ft 130kts
11-Oct-17 21:00 32.753271 -117.237915 308 2542ft 206kts
11-Oct-17 21:01 32.787086 -117.296407 305 5778ft 254kts
11-Oct-17 21:02 32.824085 -117.356325 309 12909ft 238kts
11-Oct-17 21:03 32.864630 -117.419154 309 13009ft 241kts
11-Oct-17 21:04 32.919563 -117.471004 324 21980ft 267kts
11-Oct-17 21:05 32.979785 -117.526885 323 32528ft 320kts
11-Oct-17 21:06 33.053472 -117.595918 323 40591ft 373kts
11-Oct-17 21:07 33.132301 -117.670034 322 40980ft 341kts
11-Oct-17 21:08 33.195352 -117.729376 322 40980ft 304kts
11-Oct-17 21:09 33.258431 -117.788825 322 41011ft 316kts
11-Oct-17 21:10 33.311650 -117.839049 322 41009ft 316kts
11-Oct-17 21:11 33.379419 -117.903165 322 41005ft 316kts
11-Oct-17 21:12 33.447548 -117.967751 322 41007ft 315kts
11-Oct-17 21:13 33.507562 -118.024743 322 41011ft 316kts
11-Oct-17 21:14 33.575758 -118.089671 322 41008ft 316kts
11-Oct-17 21:15 33.632291 -118.143591 323 41009ft 315kts
11-Oct-17 21:16 33.699164 -118.207429 322 41012ft 316kts
11-Oct-17 21:17 33.747230 -118.251138 339 40983ft 314kts
11-Oct-17 21:18 33.807481 -118.208188 68 41048ft 316kts
11-Oct-17 21:19 33.863793 -118.138707 46 41011ft 313kts
11-Oct-17 21:20 33.926637 -118.054242 48 41103ft 471kts
11-Oct-17 21:21 34.004544 -117.947360 48 41003ft 474kts
11-Oct-17 21:22 34.087460 -117.833050 48 40196ft 466kts
11-Oct-17 21:23 34.167781 -117.722049 48 38927ft 455kts
11-Oct-17 21:24 34.247773 -117.611162 48 37641ft 441kts
11-Oct-17 21:25 34.326136 -117.502197 48 36333ft 430kts
11-Oct-17 21:26 34.402334 -117.395868 48 35024ft 420kts
11-Oct-17 21:27 34.475886 -117.292917 48 33731ft 411kts
11-Oct-17 21:28 34.549272 -117.189933 48 32418ft 401kts
11-Oct-17 21:29 34.621150 -117.088764 48 31098ft 394kts
11-Oct-17 21:30 34.691259 -116.989828 48 29778ft 387kts
11-Oct-17 21:31 34.759774 -116.892816 49 28472ft 375kts
11-Oct-17 21:32 34.826985 -116.797428 48 27144ft 370kts
11-Oct-17 21:33 34.892591 -116.704063 48 25825ft 360kts
11-Oct-17 21:34 34.956812 -116.612373 48 24507ft 352kts
11-Oct-17 21:35 35.019793 -116.522297 48 24003ft 349kts
11-Oct-17 21:36 35.082924 -116.431759 48 24000ft 351kts
11-Oct-17 21:37 35.147646 -116.347171 45 23043ft 343kts
11-Oct-17 21:38 35.211733 -116.266863 45 21800ft 340kts
11-Oct-17 21:39 35.276608 -116.185356 45 20534ft 330kts
11-Oct-17 21:40 35.339950 -116.105697 45 19268ft 324kts
11-Oct-17 21:41 35.402102 -116.027198 45 17990ft 319kts
11-Oct-17 21:42 35.462954 -115.950255 45 16713ft 313kts
11-Oct-17 21:43 35.522265 -115.875043 45 15453ft 304kts
11-Oct-17 21:44 35.580486 -115.801083 45 14173ft 301kts
11-Oct-17 21:45 35.637571 -115.728350 45 13122ft 294kts
11-Oct-17 21:45 35.684752 -115.668166 45 13101ft 293kts
11-Oct-17 21:46 35.741274 -115.595871 45 13094ft 294kts
11-Oct-17 21:47 35.801930 -115.529647 41 12553ft 292kts
11-Oct-17 21:49 35.867798 -115.449732 51 10189ft 285kts
11-Oct-17 21:49 35.907388 -115.386813 51 8861ft 276kts
11-Oct-17 21:50 35.951451 -115.312685 61 7372ft 271kts
11-Oct-17 21:51 35.974948 -115.227375 59 5791ft 263kts
11-Oct-17 21:53 36.030524 -115.161933 42 5091ft 265kts
11-Oct-17 21:53 36.069350 -115.118153 42 5071ft 220kts
11-Oct-17 21:54 36.110275 -115.072130 37 5093ft 227kts
11-Oct-17 21:55 36.165429 -115.069854 346 5838ft 213kts
11-Oct-17 21:56 36.210583 -115.093050 300 4665ft 167kts
11-Oct-17 21:57 36.206716 -115.143158 200 3747ft 163kts
11-Oct-17 21:58 36.164242 -115.134007 168 4283ft 175kts
11-Oct-17 21:59 36.122060 -115.144542 203 3207ft 166kts
11-Oct-17 22:00 36.087438 -115.163397 205 2147ft 43kts
11-Oct-17 22:01 36.083864 -115.166552 239 2147ft 0kts
11-Oct-17 22:02 36.083864 -115.166552 239 2147ft 0kts
11-Oct-17 22:03 36.089093 -115.163970 23 2147ft 43kts
11-Oct-17 22:04 36.094159 -115.162529 210 2147ft 0kts
11-Oct-17 22:05 36.095334 -115.161303 25 2147ft 13kts
11-Oct-17 22:06 36.096378 -115.161273 47 2147ft 30kts
11-Oct-17 22:07 36.099297 -115.159186 203 2147ft 0kts
11-Oct-17 22:08 36.099297 -115.159186 203 2147ft 0kts
11-Oct-17 22:09 36.099297 -115.159186 203 2147ft 0kts
11-Oct-17 22:10 36.099297 -115.159186 203 2147ft 0kts
11-Oct-17 22:11 36.099297 -115.159186 203 2147ft 0kts

Navigation Log

Ident Type
Flight plan parsing failed, navigation log unavailable